createdAt,value
2022-08-21T00:02:27.034Z,100901.84
2022-08-21T00:04:57.328Z,100902.72
2022-08-21T00:07:27.735Z,100906.44
2022-08-21T00:09:56.778Z,100912.00
2022-08-21T00:12:25.583Z,100917.25
2022-08-21T00:14:57.178Z,100907.78
2022-08-21T00:17:28.327Z,100915.34
2022-08-21T00:19:56.945Z,100912.81
2022-08-21T00:22:25.505Z,100907.94
2022-08-21T00:24:54.484Z,100913.84
2022-08-21T00:27:23.338Z,100913.00
2022-08-21T00:29:52.373Z,100908.78
2022-08-21T00:32:24.202Z,100911.16
2022-08-21T00:34:55.012Z,100915.16
2022-08-21T00:37:30.515Z,100903.34
2022-08-21T00:40:03.558Z,100903.47
2022-08-21T00:42:32.479Z,100909.44
2022-08-21T00:45:01.387Z,100904.31
2022-08-21T00:47:33.386Z,100910.88
2022-08-21T00:50:03.971Z,100902.31
2022-08-21T00:52:35.972Z,100906.69
2022-08-21T00:55:08.305Z,100901.91
2022-08-21T00:57:43.791Z,100907.53
2022-08-21T01:00:17.620Z,100903.22
2022-08-21T01:02:46.918Z,100905.88
2022-08-21T01:05:18.186Z,100900.13
2022-08-21T01:07:46.765Z,100898.41
2022-08-21T01:10:23.769Z,100906.22
2022-08-21T01:12:56.824Z,100905.22
2022-08-21T01:15:31.548Z,100906.78
2022-08-21T01:18:01.072Z,100909.41
2022-08-21T01:20:32.208Z,100913.97
2022-08-21T01:23:03.891Z,100907.53
2022-08-21T01:25:32.997Z,100912.50
2022-08-21T01:28:08.045Z,100919.00
2022-08-21T01:30:39.855Z,100919.38
2022-08-21T01:33:08.240Z,100921.13
2022-08-21T01:35:36.972Z,100922.25
2022-08-21T01:38:08.749Z,100923.88
2022-08-21T01:40:37.917Z,100925.91
2022-08-21T01:43:06.813Z,100932.31
2022-08-21T01:45:35.310Z,100931.34
2022-08-21T01:48:06.599Z,100931.34
2022-08-21T01:50:35.286Z,100934.84
2022-08-21T01:53:04.744Z,100942.34
2022-08-21T01:55:34.881Z,100937.03
2022-08-21T01:58:03.303Z,100935.09
2022-08-21T02:00:31.864Z,100926.34
2022-08-21T02:03:00.819Z,100932.72
2022-08-21T02:05:29.395Z,100930.81
2022-08-21T02:07:59.236Z,100926.88
2022-08-21T02:10:32.450Z,100929.50
2022-08-21T02:13:03.928Z,100933.50
2022-08-21T02:15:32.992Z,100931.22
2022-08-21T02:18:03.514Z,100941.81
2022-08-21T02:20:35.786Z,100937.97
2022-08-21T02:23:05.531Z,100938.22
2022-08-21T02:25:34.317Z,100939.44
2022-08-21T02:28:07.720Z,100938.09
2022-08-21T02:30:40.277Z,100944.97
2022-08-21T02:33:09.112Z,100940.38
2022-08-21T02:35:39.680Z,100937.03
2022-08-21T02:38:12.937Z,100934.50
2022-08-21T02:40:48.248Z,100936.19
2022-08-21T02:43:23.025Z,100942.19
2022-08-21T02:45:52.057Z,100940.53
2022-08-21T02:48:24.069Z,100927.53
2022-08-21T02:50:57.142Z,100931.13
2022-08-21T02:53:26.846Z,100931.38
2022-08-21T02:55:56.104Z,100924.53
2022-08-21T02:58:29.441Z,100922.34
2022-08-21T03:00:58.085Z,100924.63
2022-08-21T03:03:28.414Z,100922.81
2022-08-21T03:05:57.125Z,100918.63
2022-08-21T03:08:27.712Z,100919.59
2022-08-21T03:10:56.722Z,100922.25
2022-08-21T03:13:26.908Z,100921.63
2022-08-21T03:15:57.393Z,100922.06
2022-08-21T03:18:27.880Z,100934.59
2022-08-21T03:20:56.921Z,100934.81
2022-08-21T03:23:25.942Z,100926.75
2022-08-21T03:26:02.109Z,100942.75
2022-08-21T03:28:32.784Z,100935.44
2022-08-21T03:31:02.329Z,100933.72
2022-08-21T03:33:31.126Z,100934.06
2022-08-21T03:36:03.403Z,100934.34
2022-08-21T03:38:35.168Z,100933.38
2022-08-21T03:41:04.607Z,100936.38
2022-08-21T03:43:35.409Z,100934.69
2022-08-21T03:46:05.351Z,100938.31
2022-08-21T03:48:34.094Z,100944.44
2022-08-21T03:51:03.324Z,100939.97
2022-08-21T03:53:32.485Z,100946.69
2022-08-21T03:56:01.127Z,100945.34
2022-08-21T03:58:31.553Z,100947.16
2022-08-21T04:01:08.719Z,100949.19
2022-08-21T04:03:38.599Z,100945.00
2022-08-21T04:06:30.353Z,100936.44
2022-08-21T04:09:03.171Z,100940.53
2022-08-21T04:11:31.608Z,100952.53
2022-08-21T04:14:01.333Z,100950.00
2022-08-21T04:16:32.138Z,100953.72
2022-08-21T04:19:00.811Z,100941.47
2022-08-21T04:21:32.459Z,100944.81
2022-08-21T04:24:00.935Z,100953.34
2022-08-21T04:26:29.547Z,100947.22
2022-08-21T04:28:58.709Z,100952.13
2022-08-21T04:31:27.556Z,100959.81
2022-08-21T04:33:58.439Z,100956.69
2022-08-21T04:36:28.189Z,100960.50
2022-08-21T04:38:57.915Z,100965.59
2022-08-21T04:41:27.995Z,100974.19
2022-08-21T04:43:57.615Z,100978.28
2022-08-21T04:46:26.210Z,100979.56
2022-08-21T04:48:54.641Z,100981.94
2022-08-21T04:51:31.235Z,100977.94
2022-08-21T04:54:02.885Z,100984.91
2022-08-21T04:56:36.060Z,100989.25
2022-08-21T04:59:09.083Z,100986.16
2022-08-21T05:01:42.540Z,100988.09
2022-08-21T05:04:14.385Z,100991.56
2022-08-21T05:06:48.884Z,100983.72
2022-08-21T05:09:21.152Z,100984.81
2022-08-21T05:11:50.644Z,100986.38
2022-08-21T05:14:19.223Z,100988.28
2022-08-21T05:16:48.110Z,100991.16
2022-08-21T05:19:16.743Z,101000.75
2022-08-21T05:21:48.841Z,100993.78
2022-08-21T05:24:18.999Z,100991.66
2022-08-21T05:26:50.196Z,100994.31
2022-08-21T05:29:19.161Z,100996.84
2022-08-21T05:31:49.193Z,100994.22
2022-08-21T05:34:22.497Z,101005.50
2022-08-21T05:36:52.339Z,100998.41
2022-08-21T05:39:20.770Z,101002.72
2022-08-21T05:41:50.416Z,101012.25
2022-08-21T05:44:19.153Z,101009.41
2022-08-21T05:46:49.390Z,101001.22
2022-08-21T05:49:20.812Z,100999.19
2022-08-21T05:51:49.524Z,100997.91
2022-08-21T05:54:19.707Z,101000.19
2022-08-21T05:56:48.106Z,100999.03
2022-08-21T05:59:17.312Z,101002.91
2022-08-21T06:01:46.880Z,101005.31
2022-08-21T06:04:15.925Z,101001.13
2022-08-21T06:06:44.904Z,101009.56
2022-08-21T06:09:14.224Z,101012.78
2022-08-21T06:11:44.438Z,101010.50
2022-08-21T06:14:16.355Z,101005.09
2022-08-21T06:16:45.275Z,101013.50
2022-08-21T06:19:14.032Z,101011.84
2022-08-21T06:21:42.806Z,101015.09
2022-08-21T06:24:11.604Z,101010.16
2022-08-21T06:26:41.112Z,101014.97
2022-08-21T06:29:13.680Z,101025.69
2022-08-21T06:31:42.377Z,101030.50
2022-08-21T06:34:39.341Z,101038.22
2022-08-21T06:37:07.939Z,101034.38
2022-08-21T06:39:39.164Z,101037.63
2022-08-21T06:42:16.870Z,101044.00
2022-08-21T06:44:48.983Z,101042.41
2022-08-21T06:47:17.819Z,101053.97
2022-08-21T06:49:46.212Z,101054.09
2022-08-21T06:52:15.943Z,101056.59
2022-08-21T06:54:45.156Z,101058.69
2022-08-21T06:57:14.551Z,101062.41
2022-08-21T06:59:43.103Z,101055.44
2022-08-21T07:02:13.266Z,101064.34
2022-08-21T07:04:42.831Z,101054.50
2022-08-21T07:07:11.534Z,101061.13
2022-08-21T07:09:40.176Z,101055.72
2022-08-21T07:12:09.579Z,101053.97
2022-08-21T07:14:38.436Z,101054.34
2022-08-21T07:17:06.962Z,101054.97
2022-08-21T07:19:37.913Z,101058.72
2022-08-21T07:22:08.879Z,101064.97
2022-08-21T07:24:37.316Z,101068.19
2022-08-21T07:27:09.910Z,101056.06
2022-08-21T07:29:38.769Z,101055.34
2022-08-21T07:32:07.964Z,101062.13
2022-08-21T07:34:38.379Z,101064.28
2022-08-21T07:37:09.994Z,101073.31
2022-08-21T07:39:39.419Z,101070.53
2022-08-21T07:42:08.618Z,101089.91
2022-08-21T07:44:37.502Z,101090.38
2022-08-21T07:47:06.221Z,101081.38
2022-08-21T07:49:34.869Z,101087.28
2022-08-21T07:52:05.775Z,101091.50
2022-08-21T07:54:34.705Z,101097.41
2022-08-21T07:57:03.690Z,101093.88
2022-08-21T07:59:32.461Z,101085.06
2022-08-21T08:02:01.008Z,101080.38
2022-08-21T08:04:29.581Z,101076.00
2022-08-21T08:06:58.218Z,101078.78
2022-08-21T08:09:28.141Z,101071.16
2022-08-21T08:11:56.760Z,101072.38
2022-08-21T08:14:31.451Z,101074.38
2022-08-21T08:17:00.498Z,101070.22
2022-08-21T08:19:28.965Z,101070.56
2022-08-21T08:21:57.684Z,101067.59
2022-08-21T08:24:27.589Z,101068.69
2022-08-21T08:26:58.313Z,101066.69
2022-08-21T08:29:26.784Z,101062.91
2022-08-21T08:31:56.550Z,101065.34
2022-08-21T08:34:25.675Z,101050.31
2022-08-21T08:36:54.778Z,101055.22
2022-08-21T08:39:26.459Z,101046.16
2022-08-21T08:42:03.535Z,101037.34
2022-08-21T08:44:58.193Z,101041.16
2022-08-21T08:47:28.317Z,101036.09
2022-08-21T08:50:04.687Z,101033.84
2022-08-21T08:52:36.036Z,101045.06
2022-08-21T08:55:08.786Z,101047.03
2022-08-21T08:57:40.635Z,101050.13
2022-08-21T09:00:13.362Z,101046.50
2022-08-21T09:02:47.361Z,101043.84
2022-08-21T09:05:24.242Z,101052.41
2022-08-21T09:08:18.659Z,101040.38
2022-08-21T09:11:00.062Z,101045.88
2022-08-21T09:13:43.627Z,101041.59
2022-08-21T09:16:23.240Z,101036.81
2022-08-21T09:19:03.772Z,101047.59
2022-08-21T09:21:42.304Z,101044.00
2022-08-21T09:24:28.333Z,101046.28
2022-08-21T09:27:05.889Z,101038.69
2022-08-21T09:29:38.900Z,101036.03
2022-08-21T09:32:18.533Z,101033.16
2022-08-21T09:35:00.306Z,101022.56
2022-08-21T09:37:31.900Z,101023.84
2022-08-21T09:40:01.774Z,101027.22
2022-08-21T09:42:33.797Z,101026.31
2022-08-21T09:45:14.999Z,101033.59
2022-08-21T09:47:44.455Z,101024.84
2022-08-21T09:50:17.568Z,101017.84
2022-08-21T09:52:52.298Z,101017.34
2022-08-21T09:55:51.399Z,101023.38
2022-08-21T09:58:21.137Z,101024.78
2022-08-21T10:01:01.230Z,101020.72
2022-08-21T10:03:29.784Z,101018.53
2022-08-21T10:06:02.256Z,101021.44
2022-08-21T10:08:34.480Z,101022.47
2022-08-21T10:11:14.401Z,101028.09
2022-08-21T10:14:01.851Z,101024.13
2022-08-21T10:16:43.357Z,101020.78
2022-08-21T10:19:24.096Z,101012.78
2022-08-21T10:22:08.959Z,101016.91
2022-08-21T10:24:49.430Z,101010.78
2022-08-21T10:27:29.790Z,101008.81
2022-08-21T10:30:05.217Z,101004.03
2022-08-21T10:32:48.590Z,101000.56
2022-08-21T10:35:24.883Z,100996.50
2022-08-21T10:38:39.379Z,101005.69
2022-08-21T10:41:15.965Z,101000.88
2022-08-21T10:43:58.819Z,101000.03
2022-08-21T10:46:40.129Z,101006.72
2022-08-21T10:49:23.462Z,100999.06
2022-08-21T10:52:03.380Z,101009.91
2022-08-21T10:54:40.997Z,101012.41
2022-08-21T10:57:16.979Z,101011.28
2022-08-21T11:00:03.023Z,101007.38
2022-08-21T11:02:38.612Z,101008.56
2022-08-21T11:05:16.889Z,101011.06
2022-08-21T11:07:50.450Z,101010.66
2022-08-21T11:10:25.586Z,101004.25
2022-08-21T11:12:58.776Z,101007.75
2022-08-21T11:15:38.193Z,101002.19
2022-08-21T11:18:18.419Z,100996.00
2022-08-21T11:20:59.252Z,101001.50
2022-08-21T11:23:33.745Z,101007.19
2022-08-21T11:26:20.117Z,101000.38
2022-08-21T11:28:55.108Z,100999.06
2022-08-21T11:31:36.726Z,101004.38
2022-08-21T11:34:21.193Z,100991.16
2022-08-21T11:37:01.537Z,100996.34
2022-08-21T11:39:40.768Z,101000.72
2022-08-21T11:42:22.660Z,100998.03
2022-08-21T11:44:58.849Z,101000.72
2022-08-21T11:47:40.546Z,100999.69
2022-08-21T11:50:29.749Z,100993.09
2022-08-21T11:53:11.299Z,100994.56
2022-08-21T11:55:44.625Z,100996.91
2022-08-21T11:58:18.741Z,101001.53
2022-08-21T12:00:52.965Z,100993.38
2022-08-21T12:03:29.029Z,100996.44
2022-08-21T12:06:01.209Z,100987.06
2022-08-21T12:08:34.317Z,100978.03
2022-08-21T12:11:06.884Z,100975.84
2022-08-21T12:13:42.081Z,100976.34
2022-08-21T12:16:14.496Z,100974.84
2022-08-21T12:18:44.059Z,100968.50
2022-08-21T12:21:28.663Z,100971.28
2022-08-21T12:24:07.915Z,100978.56
2022-08-21T12:26:38.904Z,100975.88
2022-08-21T12:29:15.449Z,100975.84
2022-08-21T12:31:53.326Z,100977.09
2022-08-21T12:34:25.785Z,100972.44
2022-08-21T12:36:59.618Z,100969.97
2022-08-21T12:39:33.310Z,100972.94
2022-08-21T12:42:09.654Z,100979.66
2022-08-21T12:44:42.761Z,100975.00
2022-08-21T12:47:18.772Z,100971.78
2022-08-21T12:49:57.233Z,100973.09
2022-08-21T12:52:34.558Z,100972.00
2022-08-21T12:55:09.973Z,100978.31
2022-08-21T12:57:40.471Z,100973.66
2022-08-21T13:00:14.455Z,100982.09
2022-08-21T13:02:48.989Z,100972.69
2022-08-21T13:05:27.120Z,100974.56
2022-08-21T13:07:55.779Z,100972.78
2022-08-21T13:10:28.612Z,100963.88
2022-08-21T13:12:59.436Z,100968.28
2022-08-21T13:15:33.398Z,100968.16
2022-08-21T13:18:04.670Z,100960.31
2022-08-21T13:20:35.505Z,100962.53
2022-08-21T13:23:08.896Z,100973.09
2022-08-21T13:25:39.954Z,100960.66
2022-08-21T13:28:14.550Z,100968.47
2022-08-21T13:30:45.893Z,100964.50
2022-08-21T13:33:16.761Z,100965.28
2022-08-21T13:35:51.865Z,100970.63
2022-08-21T13:38:27.360Z,100954.75
2022-08-21T13:41:01.156Z,100958.44
2022-08-21T13:43:37.824Z,100966.25
2022-08-21T13:46:14.695Z,100949.69
2022-08-21T13:48:44.764Z,100952.84
2022-08-21T13:51:14.667Z,100944.84
2022-08-21T13:53:53.013Z,100946.16
2022-08-21T13:56:59.922Z,100949.50
2022-08-21T13:59:37.862Z,100951.69
2022-08-21T14:02:16.076Z,100944.59
2022-08-21T14:04:53.150Z,100948.91
2022-08-21T14:07:27.519Z,100936.78
2022-08-21T14:09:57.325Z,100925.78
2022-08-21T14:12:30.920Z,100934.47
2022-08-21T14:15:01.115Z,100937.50
2022-08-21T14:17:34.108Z,100925.53
2022-08-21T14:20:03.584Z,100929.59
2022-08-21T14:22:38.946Z,100921.91
2022-08-21T14:25:09.987Z,100929.41
2022-08-21T14:27:45.841Z,100941.84
2022-08-21T14:30:21.232Z,100941.53
2022-08-21T14:32:53.715Z,100932.16
2022-08-21T14:35:23.795Z,100935.56
2022-08-21T14:37:55.172Z,100932.84
2022-08-21T14:40:26.958Z,100931.41
2022-08-21T14:43:00.227Z,100938.59
2022-08-21T14:45:30.490Z,100928.28
2022-08-21T14:48:05.981Z,100927.16
2022-08-21T14:50:34.315Z,100930.22
2022-08-21T14:53:04.597Z,100927.00
2022-08-21T14:55:54.545Z,100929.28
2022-08-21T14:58:26.335Z,100933.28
2022-08-21T15:00:57.272Z,100931.72
2022-08-21T15:03:25.928Z,100936.28
2022-08-21T15:05:54.937Z,100931.94
2022-08-21T15:08:23.399Z,100933.63
2022-08-21T15:11:10.966Z,100939.78
2022-08-21T15:13:42.902Z,100934.50
2022-08-21T15:16:13.819Z,100931.97
2022-08-21T15:18:43.042Z,100923.38
2022-08-21T15:21:11.724Z,100926.94
2022-08-21T15:23:43.793Z,100920.66
2022-08-21T15:26:12.603Z,100927.25
2022-08-21T15:28:43.389Z,100924.03
2022-08-21T15:31:12.080Z,100928.50
2022-08-21T15:33:40.640Z,100916.03
2022-08-21T15:36:09.780Z,100918.50
2022-08-21T15:38:38.311Z,100920.59
2022-08-21T15:41:08.423Z,100919.13
2022-08-21T15:43:47.464Z,100912.81
2022-08-21T15:46:18.008Z,100910.19
2022-08-21T15:48:48.015Z,100918.22
2022-08-21T15:51:18.661Z,100922.81
2022-08-21T15:53:47.990Z,100919.19
2022-08-21T15:56:24.449Z,100907.59
2022-08-21T15:58:56.403Z,100904.50
2022-08-21T16:01:24.773Z,100893.81
2022-08-21T16:03:56.448Z,100895.81
2022-08-21T16:06:37.992Z,100900.69
2022-08-21T16:09:13.642Z,100890.22
2022-08-21T16:11:42.320Z,100890.16
2022-08-21T16:14:13.704Z,100898.91
2022-08-21T16:16:43.631Z,100890.56
2022-08-21T16:19:14.655Z,100891.56
2022-08-21T16:21:43.109Z,100903.25
2022-08-21T16:24:11.512Z,100887.63
2022-08-21T16:26:40.320Z,100886.78
2022-08-21T16:29:10.693Z,100888.91
2022-08-21T16:31:40.621Z,100894.31
2022-08-21T16:34:09.904Z,100883.81
2022-08-21T16:36:43.947Z,100878.50
2022-08-21T16:39:12.841Z,100882.41
2022-08-21T16:41:41.757Z,100882.69
2022-08-21T16:44:11.207Z,100876.59
2022-08-21T16:46:43.418Z,100869.03
2022-08-21T16:49:12.056Z,100883.03
2022-08-21T16:51:40.747Z,100867.91
2022-08-21T16:54:09.559Z,100874.22
2022-08-21T16:56:40.418Z,100870.69
2022-08-21T16:59:12.472Z,100876.38
2022-08-21T17:01:43.362Z,100873.63
2022-08-21T17:04:12.438Z,100884.28
2022-08-21T17:06:41.131Z,100879.13
2022-08-21T17:09:11.553Z,100885.09
2022-08-21T17:11:42.395Z,100871.25
2022-08-21T17:14:14.407Z,100870.44
2022-08-21T17:16:48.929Z,100864.75
2022-08-21T17:19:18.633Z,100875.16
2022-08-21T17:21:47.179Z,100873.81
2022-08-21T17:24:16.336Z,100880.19
2022-08-21T17:26:46.586Z,100873.75
2022-08-21T17:29:16.554Z,100870.63
2022-08-21T17:31:47.300Z,100868.44
2022-08-21T17:34:16.965Z,100869.38
2022-08-21T17:36:48.024Z,100865.63
2022-08-21T17:39:22.349Z,100869.97
2022-08-21T17:41:57.912Z,100887.34
2022-08-21T17:44:27.648Z,100885.16
2022-08-21T17:46:58.457Z,100884.28
2022-08-21T17:49:26.837Z,100887.72
2022-08-21T17:51:55.544Z,100889.22
2022-08-21T17:54:25.628Z,100882.97
2022-08-21T17:56:56.297Z,100898.34
2022-08-21T17:59:26.322Z,100905.41
2022-08-21T18:02:01.684Z,100910.28
2022-08-21T18:04:31.390Z,100905.47
2022-08-21T18:07:00.035Z,100915.06
2022-08-21T18:09:28.781Z,100914.00
2022-08-21T18:11:58.803Z,100907.44
2022-08-21T18:14:33.336Z,100903.63
2022-08-21T18:17:05.122Z,100898.09
2022-08-21T18:19:36.110Z,100895.78
2022-08-21T18:22:21.127Z,100887.38
2022-08-21T18:24:50.503Z,100897.44
2022-08-21T18:27:20.458Z,100889.06
2022-08-21T18:29:50.970Z,100890.25
2022-08-21T18:32:31.832Z,100891.81
2022-08-21T18:35:04.174Z,100890.84
2022-08-21T18:37:32.702Z,100895.13
2022-08-21T18:40:01.693Z,100893.41
2022-08-21T18:42:40.461Z,100893.75
2022-08-21T18:45:13.016Z,100887.06
2022-08-21T18:47:48.854Z,100886.66
2022-08-21T18:50:22.403Z,100885.72
2022-08-21T18:52:55.527Z,100896.94
2022-08-21T18:55:25.308Z,100899.81
2022-08-21T18:57:57.360Z,100893.91
2022-08-21T19:00:30.524Z,100893.69
2022-08-21T19:03:01.726Z,100889.09
2022-08-21T19:05:36.391Z,100891.28
2022-08-21T19:11:23.405Z,100892.09
2022-08-21T19:13:55.230Z,100897.44
2022-08-21T19:16:24.389Z,100903.34
2022-08-21T19:18:55.207Z,100902.09
2022-08-21T19:21:42.479Z,100898.59
2022-08-21T19:24:18.170Z,100895.31
2022-08-21T19:27:09.040Z,100905.25
2022-08-21T19:29:42.564Z,100902.28
2022-08-21T19:32:15.347Z,100901.16
2022-08-21T19:34:51.115Z,100899.03
2022-08-21T19:37:20.724Z,100905.69
2022-08-21T19:39:50.532Z,100908.75
2022-08-21T19:42:21.767Z,100905.78
2022-08-21T19:47:47.890Z,100894.91
2022-08-21T19:50:21.414Z,100894.53
2022-08-21T19:52:51.720Z,100898.84
2022-08-21T19:55:23.289Z,100898.16
2022-08-21T19:57:52.932Z,100904.59
2022-08-21T20:00:24.111Z,100898.16
2022-08-21T20:02:53.722Z,100894.13
2022-08-21T20:05:24.591Z,100895.16
2022-08-21T20:08:11.753Z,100896.38
2022-08-21T20:10:49.910Z,100886.88
2022-08-21T20:13:22.413Z,100874.16
2022-08-21T20:15:51.998Z,100885.81
2022-08-21T20:18:31.408Z,100885.22
2022-08-21T20:21:01.541Z,100877.78
2022-08-21T20:23:30.717Z,100875.16
2022-08-21T20:26:06.271Z,100871.72
2022-08-21T20:28:36.982Z,100871.09
2022-08-21T20:31:09.593Z,100869.97
2022-08-21T20:33:38.512Z,100874.00
2022-08-21T20:36:09.596Z,100874.00
2022-08-21T20:38:38.906Z,100870.19
2022-08-21T20:41:17.863Z,100869.41
2022-08-21T20:43:51.931Z,100868.63
2022-08-21T20:46:27.510Z,100884.41
2022-08-21T20:48:58.355Z,100879.59
2022-08-21T20:51:39.041Z,100876.56
2022-08-21T20:54:16.743Z,100875.13
2022-08-21T20:56:50.614Z,100874.28
2022-08-21T20:59:43.085Z,100879.19
2022-08-21T21:02:22.775Z,100873.03
2022-08-21T21:04:55.669Z,100875.34
2022-08-21T21:07:29.790Z,100866.59
2022-08-21T21:10:05.854Z,100862.09
2022-08-21T21:12:40.444Z,100852.81
2022-08-21T21:15:14.703Z,100870.91
2022-08-21T21:17:49.095Z,100869.97
2022-08-21T21:20:22.601Z,100871.75
2022-08-21T21:23:02.547Z,100873.41
2022-08-21T21:25:39.896Z,100872.03
2022-08-21T21:28:14.053Z,100868.31
2022-08-21T21:30:46.589Z,100873.75
2022-08-21T21:33:18.570Z,100873.13
2022-08-21T21:35:53.382Z,100873.03
2022-08-21T21:38:31.593Z,100872.97
2022-08-21T21:41:13.059Z,100866.28
2022-08-21T21:44:21.339Z,100865.44
2022-08-21T21:46:57.000Z,100885.75
2022-08-21T21:49:36.881Z,100885.22
2022-08-21T21:52:20.629Z,100885.34
2022-08-21T21:55:06.957Z,100877.75
2022-08-21T21:58:00.313Z,100873.19
2022-08-21T22:00:37.134Z,100864.75
2022-08-21T22:03:13.659Z,100872.03
2022-08-21T22:05:56.778Z,100867.25
2022-08-21T22:08:39.621Z,100869.53
2022-08-21T22:11:29.551Z,100864.16
2022-08-21T22:14:05.479Z,100870.69
2022-08-21T22:16:37.679Z,100859.13
2022-08-21T22:19:15.022Z,100850.38
2022-08-21T22:21:51.736Z,100848.53
2022-08-21T22:24:26.127Z,100854.56
2022-08-21T22:27:04.771Z,100845.88
2022-08-21T22:29:46.437Z,100839.22
2022-08-21T22:32:24.566Z,100824.81
2022-08-21T22:35:14.282Z,100834.00
2022-08-21T22:37:47.675Z,100822.78
2022-08-21T22:40:26.409Z,100813.59
2022-08-21T22:43:07.376Z,100820.91
2022-08-21T22:45:57.694Z,100826.53
2022-08-21T22:48:32.761Z,100828.59
2022-08-21T22:51:05.327Z,100841.03
2022-08-21T22:53:37.861Z,100835.47
2022-08-21T22:56:09.768Z,100835.97
2022-08-21T22:58:55.182Z,100843.50
2022-08-21T23:01:40.151Z,100849.66
2022-08-21T23:04:18.699Z,100848.94
2022-08-21T23:06:52.710Z,100848.44
2022-08-21T23:09:32.003Z,100839.97
2022-08-21T23:12:21.428Z,100841.00
2022-08-21T23:14:55.113Z,100836.88
2022-08-21T23:17:39.917Z,100828.97
2022-08-21T23:20:17.247Z,100829.78
2022-08-21T23:22:57.211Z,100828.75
2022-08-21T23:25:55.095Z,100826.38
2022-08-21T23:28:41.213Z,100821.34
2022-08-21T23:31:22.817Z,100820.66
2022-08-21T23:34:15.945Z,100815.56
2022-08-21T23:37:18.613Z,100814.50
2022-08-21T23:40:12.074Z,100819.38
2022-08-21T23:43:07.631Z,100813.97
2022-08-21T23:45:49.144Z,100819.13
2022-08-21T23:48:33.017Z,100820.19
2022-08-21T23:51:04.798Z,100832.72
2022-08-21T23:53:50.316Z,100832.25
2022-08-21T23:56:33.409Z,100810.03
2022-08-21T23:59:14.186Z,100824.78
